sensor_id;sensor_type;location;lat;lon;timestamp;P1;durP1;ratioP1;P2;durP2;ratioP2
44098;SDS011;29762;50.086;14.364;2023-03-13T00:00:51;5.35;;;3.30;;
44098;SDS011;29762;50.086;14.364;2023-03-13T00:06:11;4.22;;;3.08;;
44098;SDS011;29762;50.086;14.364;2023-03-13T00:11:31;3.45;;;2.72;;
44098;SDS011;29762;50.086;14.364;2023-03-13T00:16:50;3.17;;;2.80;;
44098;SDS011;29762;50.086;14.364;2023-03-13T00:22:10;4.53;;;3.00;;
44098;SDS011;29762;50.086;14.364;2023-03-13T00:27:33;3.90;;;3.30;;
44098;SDS011;29762;50.086;14.364;2023-03-13T00:32:52;4.03;;;3.00;;
44098;SDS011;29762;50.086;14.364;2023-03-13T00:38:12;3.35;;;2.72;;
44098;SDS011;29762;50.086;14.364;2023-03-13T00:43:31;3.42;;;2.65;;
44098;SDS011;29762;50.086;14.364;2023-03-13T00:48:52;3.20;;;2.80;;
44098;SDS011;29762;50.086;14.364;2023-03-13T00:54:12;3.17;;;2.63;;
44098;SDS011;29762;50.086;14.364;2023-03-13T00:59:32;4.13;;;2.80;;
44098;SDS011;29762;50.086;14.364;2023-03-13T01:04:51;3.30;;;2.75;;
44098;SDS011;29762;50.086;14.364;2023-03-13T01:10:12;3.67;;;2.70;;
44098;SDS011;29762;50.086;14.364;2023-03-13T01:15:35;3.72;;;2.40;;
44098;SDS011;29762;50.086;14.364;2023-03-13T01:20:54;2.75;;;2.45;;
44098;SDS011;29762;50.086;14.364;2023-03-13T01:26:14;4.80;;;2.70;;
44098;SDS011;29762;50.086;14.364;2023-03-13T01:31:34;3.17;;;2.72;;
44098;SDS011;29762;50.086;14.364;2023-03-13T01:36:54;3.67;;;2.53;;
44098;SDS011;29762;50.086;14.364;2023-03-13T01:42:14;3.70;;;2.22;;
44098;SDS011;29762;50.086;14.364;2023-03-13T01:47:33;2.80;;;2.40;;
44098;SDS011;29762;50.086;14.364;2023-03-13T01:53:02;2.85;;;2.40;;
44098;SDS011;29762;50.086;14.364;2023-03-13T01:58:24;2.70;;;2.17;;
44098;SDS011;29762;50.086;14.364;2023-03-13T02:03:44;3.13;;;2.38;;
44098;SDS011;29762;50.086;14.364;2023-03-13T02:09:06;2.58;;;2.13;;
44098;SDS011;29762;50.086;14.364;2023-03-13T02:14:29;3.05;;;2.50;;
44098;SDS011;29762;50.086;14.364;2023-03-13T02:19:52;2.92;;;2.40;;
44098;SDS011;29762;50.086;14.364;2023-03-13T02:30:47;3.28;;;2.30;;
44098;SDS011;29762;50.086;14.364;2023-03-13T02:36:08;3.08;;;2.40;;
44098;SDS011;29762;50.086;14.364;2023-03-13T02:41:29;2.53;;;2.10;;
44098;SDS011;29762;50.086;14.364;2023-03-13T02:46:51;2.22;;;1.77;;
44098;SDS011;29762;50.086;14.364;2023-03-13T02:57:35;2.67;;;2.20;;
44098;SDS011;29762;50.086;14.364;2023-03-13T03:02:55;2.38;;;2.03;;
44098;SDS011;29762;50.086;14.364;2023-03-13T03:08:16;2.60;;;1.95;;
44098;SDS011;29762;50.086;14.364;2023-03-13T03:13:36;2.80;;;2.33;;
44098;SDS011;29762;50.086;14.364;2023-03-13T03:18:56;2.85;;;2.08;;
44098;SDS011;29762;50.086;14.364;2023-03-13T03:24:16;2.10;;;1.90;;
44098;SDS011;29762;50.086;14.364;2023-03-13T03:29:36;2.22;;;2.03;;
44098;SDS011;29762;50.086;14.364;2023-03-13T03:34:56;2.45;;;2.00;;
44098;SDS011;29762;50.086;14.364;2023-03-13T03:40:16;2.00;;;1.80;;
44098;SDS011;29762;50.086;14.364;2023-03-13T03:45:37;2.55;;;2.00;;
44098;SDS011;29762;50.086;14.364;2023-03-13T03:50:57;2.25;;;2.00;;
44098;SDS011;29762;50.086;14.364;2023-03-13T03:56:18;2.17;;;1.88;;
44098;SDS011;29762;50.086;14.364;2023-03-13T04:01:42;2.15;;;1.92;;
44098;SDS011;29762;50.086;14.364;2023-03-13T04:07:03;2.35;;;2.10;;
44098;SDS011;29762;50.086;14.364;2023-03-13T04:12:24;2.17;;;1.83;;
44098;SDS011;29762;50.086;14.364;2023-03-13T04:17:45;2.60;;;1.83;;
44098;SDS011;29762;50.086;14.364;2023-03-13T04:23:06;2.03;;;1.88;;
44098;SDS011;29762;50.086;14.364;2023-03-13T04:28:26;2.08;;;1.52;;
44098;SDS011;29762;50.086;14.364;2023-03-13T04:33:46;2.83;;;1.90;;
44098;SDS011;29762;50.086;14.364;2023-03-13T04:39:15;2.45;;;1.80;;
44098;SDS011;29762;50.086;14.364;2023-03-13T04:44:58;2.90;;;2.00;;
44098;SDS011;29762;50.086;14.364;2023-03-13T04:50:36;2.05;;;1.80;;
44098;SDS011;29762;50.086;14.364;2023-03-13T04:56:20;1.98;;;1.70;;
44098;SDS011;29762;50.086;14.364;2023-03-13T05:01:50;1.83;;;1.70;;
44098;SDS011;29762;50.086;14.364;2023-03-13T05:07:26;2.10;;;1.58;;
44098;SDS011;29762;50.086;14.364;2023-03-13T05:13:13;1.98;;;1.70;;
44098;SDS011;29762;50.086;14.364;2023-03-13T05:18:43;2.75;;;1.65;;
44098;SDS011;29762;50.086;14.364;2023-03-13T05:24:21;1.60;;;1.50;;
44098;SDS011;29762;50.086;14.364;2023-03-13T05:29:56;2.17;;;1.60;;
44098;SDS011;29762;50.086;14.364;2023-03-13T05:35:29;1.58;;;1.48;;
44098;SDS011;29762;50.086;14.364;2023-03-13T05:41:08;2.10;;;1.60;;
44098;SDS011;29762;50.086;14.364;2023-03-13T05:46:54;1.70;;;1.60;;
44098;SDS011;29762;50.086;14.364;2023-03-13T05:52:43;1.90;;;1.67;;
44098;SDS011;29762;50.086;14.364;2023-03-13T05:58:35;4.80;;;1.40;;
44098;SDS011;29762;50.086;14.364;2023-03-13T06:04:21;2.92;;;1.48;;
44098;SDS011;29762;50.086;14.364;2023-03-13T06:09:41;8.20;;;2.20;;
44098;SDS011;29762;50.086;14.364;2023-03-13T06:15:01;7.32;;;2.47;;
44098;SDS011;29762;50.086;14.364;2023-03-13T06:20:42;8.52;;;3.25;;
44098;SDS011;29762;50.086;14.364;2023-03-13T06:26:01;6.30;;;2.50;;
44098;SDS011;29762;50.086;14.364;2023-03-13T06:31:21;7.75;;;3.10;;
44098;SDS011;29762;50.086;14.364;2023-03-13T06:36:40;8.95;;;3.17;;
44098;SDS011;29762;50.086;14.364;2023-03-13T06:41:59;8.25;;;3.28;;
44098;SDS011;29762;50.086;14.364;2023-03-13T06:47:19;8.55;;;3.80;;
44098;SDS011;29762;50.086;14.364;2023-03-13T06:52:38;8.73;;;3.33;;
44098;SDS011;29762;50.086;14.364;2023-03-13T06:57:57;9.35;;;3.15;;
44098;SDS011;29762;50.086;14.364;2023-03-13T07:03:17;8.23;;;3.05;;
44098;SDS011;29762;50.086;14.364;2023-03-13T07:08:36;7.18;;;2.78;;
44098;SDS011;29762;50.086;14.364;2023-03-13T07:13:56;8.02;;;3.25;;
44098;SDS011;29762;50.086;14.364;2023-03-13T07:19:19;6.80;;;3.13;;
44098;SDS011;29762;50.086;14.364;2023-03-13T07:24:39;5.78;;;2.75;;
44098;SDS011;29762;50.086;14.364;2023-03-13T07:29:58;7.47;;;2.70;;
44098;SDS011;29762;50.086;14.364;2023-03-13T07:35:18;6.38;;;2.85;;
44098;SDS011;29762;50.086;14.364;2023-03-13T07:40:37;5.55;;;2.55;;
44098;SDS011;29762;50.086;14.364;2023-03-13T07:45:58;5.85;;;2.50;;
44098;SDS011;29762;50.086;14.364;2023-03-13T07:51:22;5.65;;;2.70;;
44098;SDS011;29762;50.086;14.364;2023-03-13T07:56:43;6.50;;;2.60;;
44098;SDS011;29762;50.086;14.364;2023-03-13T08:02:02;5.25;;;2.72;;
44098;SDS011;29762;50.086;14.364;2023-03-13T08:07:22;7.18;;;2.63;;
44098;SDS011;29762;50.086;14.364;2023-03-13T08:12:42;7.15;;;3.00;;
44098;SDS011;29762;50.086;14.364;2023-03-13T08:18:01;4.72;;;2.60;;
44098;SDS011;29762;50.086;14.364;2023-03-13T08:23:20;5.82;;;2.70;;
44098;SDS011;29762;50.086;14.364;2023-03-13T08:28:40;4.47;;;2.58;;
44098;SDS011;29762;50.086;14.364;2023-03-13T08:34:01;5.03;;;2.30;;
44098;SDS011;29762;50.086;14.364;2023-03-13T08:39:21;3.63;;;1.90;;
44098;SDS011;29762;50.086;14.364;2023-03-13T08:44:40;5.60;;;2.20;;
44098;SDS011;29762;50.086;14.364;2023-03-13T08:50:00;16.98;;;10.07;;
44098;SDS011;29762;50.086;14.364;2023-03-13T08:55:19;16.08;;;10.40;;
44098;SDS011;29762;50.086;14.364;2023-03-13T09:00:39;15.57;;;9.93;;
44098;SDS011;29762;50.086;14.364;2023-03-13T09:05:59;16.95;;;9.60;;
44098;SDS011;29762;50.086;14.364;2023-03-13T09:11:19;14.05;;;8.68;;
44098;SDS011;29762;50.086;14.364;2023-03-13T09:16:40;13.10;;;8.15;;
44098;SDS011;29762;50.086;14.364;2023-03-13T09:21:59;11.68;;;7.53;;
44098;SDS011;29762;50.086;14.364;2023-03-13T09:27:19;11.80;;;7.10;;
44098;SDS011;29762;50.086;14.364;2023-03-13T09:32:39;12.15;;;6.97;;
44098;SDS011;29762;50.086;14.364;2023-03-13T09:37:58;11.07;;;7.07;;
44098;SDS011;29762;50.086;14.364;2023-03-13T09:43:30;11.05;;;6.57;;
44098;SDS011;29762;50.086;14.364;2023-03-13T09:48:59;9.38;;;6.13;;
44098;SDS011;29762;50.086;14.364;2023-03-13T09:55:39;9.25;;;6.18;;
44098;SDS011;29762;50.086;14.364;2023-03-13T10:01:01;8.88;;;5.80;;
44098;SDS011;29762;50.086;14.364;2023-03-13T10:06:22;10.23;;;5.93;;
44098;SDS011;29762;50.086;14.364;2023-03-13T10:12:44;8.27;;;5.30;;
44098;SDS011;29762;50.086;14.364;2023-03-13T10:17:39;9.15;;;5.57;;
44098;SDS011;29762;50.086;14.364;2023-03-13T10:23:06;7.60;;;5.50;;
44098;SDS011;29762;50.086;14.364;2023-03-13T10:28:30;7.40;;;5.07;;
44098;SDS011;29762;50.086;14.364;2023-03-13T10:33:50;7.95;;;5.18;;
44098;SDS011;29762;50.086;14.364;2023-03-13T10:39:17;9.80;;;5.68;;
44098;SDS011;29762;50.086;14.364;2023-03-13T10:44:38;7.05;;;4.70;;
44098;SDS011;29762;50.086;14.364;2023-03-13T10:49:57;8.60;;;5.28;;
44098;SDS011;29762;50.086;14.364;2023-03-13T10:55:23;6.72;;;4.95;;
44098;SDS011;29762;50.086;14.364;2023-03-13T11:00:44;6.20;;;4.70;;
44098;SDS011;29762;50.086;14.364;2023-03-13T11:06:03;6.75;;;4.65;;
44098;SDS011;29762;50.086;14.364;2023-03-13T11:11:23;6.40;;;4.53;;
44098;SDS011;29762;50.086;14.364;2023-03-13T11:16:59;6.72;;;4.47;;
44098;SDS011;29762;50.086;14.364;2023-03-13T11:22:38;7.75;;;4.90;;
44098;SDS011;29762;50.086;14.364;2023-03-13T11:28:13;5.70;;;4.35;;
44098;SDS011;29762;50.086;14.364;2023-03-13T11:39:22;5.65;;;4.40;;
44098;SDS011;29762;50.086;14.364;2023-03-13T11:45:05;6.43;;;4.40;;
44098;SDS011;29762;50.086;14.364;2023-03-13T11:50:33;6.30;;;4.22;;
44098;SDS011;29762;50.086;14.364;2023-03-13T12:01:25;5.50;;;3.85;;
44098;SDS011;29762;50.086;14.364;2023-03-13T12:06:49;7.18;;;4.15;;
44098;SDS011;29762;50.086;14.364;2023-03-13T12:12:22;5.30;;;4.00;;
44098;SDS011;29762;50.086;14.364;2023-03-13T12:17:55;6.47;;;3.75;;
44098;SDS011;29762;50.086;14.364;2023-03-13T12:23:20;5.28;;;3.65;;
44098;SDS011;29762;50.086;14.364;2023-03-13T12:39:48;4.55;;;3.28;;
44098;SDS011;29762;50.086;14.364;2023-03-13T12:45:16;4.38;;;3.05;;
44098;SDS011;29762;50.086;14.364;2023-03-13T12:56:04;4.60;;;2.88;;
44098;SDS011;29762;50.086;14.364;2023-03-13T13:01:35;2.88;;;2.50;;
44098;SDS011;29762;50.086;14.364;2023-03-13T13:07:02;3.63;;;2.70;;
44098;SDS011;29762;50.086;14.364;2023-03-13T13:12:24;39.33;;;8.85;;
44098;SDS011;29762;50.086;14.364;2023-03-13T13:17:48;12.63;;;5.32;;
44098;SDS011;29762;50.086;14.364;2023-03-13T13:28:52;7.07;;;3.65;;
44098;SDS011;29762;50.086;14.364;2023-03-13T13:34:52;8.68;;;3.60;;
44098;SDS011;29762;50.086;14.364;2023-03-13T13:40:28;8.43;;;3.60;;
44098;SDS011;29762;50.086;14.364;2023-03-13T13:46:35;7.10;;;3.20;;
44098;SDS011;29762;50.086;14.364;2023-03-13T13:51:38;6.68;;;3.30;;
44098;SDS011;29762;50.086;14.364;2023-03-13T13:56:59;7.82;;;3.28;;
44098;SDS011;29762;50.086;14.364;2023-03-13T14:02:54;6.65;;;3.30;;
44098;SDS011;29762;50.086;14.364;2023-03-13T14:08:25;6.90;;;3.28;;
44098;SDS011;29762;50.086;14.364;2023-03-13T14:14:07;7.20;;;3.40;;
44098;SDS011;29762;50.086;14.364;2023-03-13T14:19:38;6.05;;;3.10;;
44098;SDS011;29762;50.086;14.364;2023-03-13T14:24:59;5.57;;;2.78;;
44098;SDS011;29762;50.086;14.364;2023-03-13T14:30:19;4.88;;;2.88;;
44098;SDS011;29762;50.086;14.364;2023-03-13T14:35:40;3.50;;;2.53;;
44098;SDS011;29762;50.086;14.364;2023-03-13T14:41:00;6.90;;;2.95;;
44098;SDS011;29762;50.086;14.364;2023-03-13T14:46:26;6.72;;;3.00;;
44098;SDS011;29762;50.086;14.364;2023-03-13T14:51:54;3.88;;;2.53;;
44098;SDS011;29762;50.086;14.364;2023-03-13T14:57:25;7.32;;;2.90;;
44098;SDS011;29762;50.086;14.364;2023-03-13T15:02:48;4.50;;;2.47;;
44098;SDS011;29762;50.086;14.364;2023-03-13T15:08:14;5.45;;;2.60;;
44098;SDS011;29762;50.086;14.364;2023-03-13T15:13:35;6.60;;;2.80;;
44098;SDS011;29762;50.086;14.364;2023-03-13T15:18:55;5.22;;;2.80;;
44098;SDS011;29762;50.086;14.364;2023-03-13T15:24:15;4.95;;;2.83;;
44098;SDS011;29762;50.086;14.364;2023-03-13T15:29:34;8.05;;;2.97;;
44098;SDS011;29762;50.086;14.364;2023-03-13T15:34:53;7.53;;;3.53;;
44098;SDS011;29762;50.086;14.364;2023-03-13T15:40:16;6.63;;;3.10;;
44098;SDS011;29762;50.086;14.364;2023-03-13T15:45:36;7.00;;;3.15;;
44098;SDS011;29762;50.086;14.364;2023-03-13T15:50:59;9.13;;;3.60;;
44098;SDS011;29762;50.086;14.364;2023-03-13T15:56:21;11.23;;;4.35;;
44098;SDS011;29762;50.086;14.364;2023-03-13T16:01:41;12.10;;;4.22;;
44098;SDS011;29762;50.086;14.364;2023-03-13T16:07:07;11.38;;;3.67;;
44098;SDS011;29762;50.086;14.364;2023-03-13T16:12:27;12.48;;;4.15;;
44098;SDS011;29762;50.086;14.364;2023-03-13T16:17:47;11.35;;;4.22;;
44098;SDS011;29762;50.086;14.364;2023-03-13T16:23:06;9.75;;;3.45;;
44098;SDS011;29762;50.086;14.364;2023-03-13T16:28:26;11.23;;;3.60;;
44098;SDS011;29762;50.086;14.364;2023-03-13T16:33:46;11.43;;;3.50;;
44098;SDS011;29762;50.086;14.364;2023-03-13T16:39:07;9.93;;;3.70;;
44098;SDS011;29762;50.086;14.364;2023-03-13T16:44:29;10.10;;;4.07;;
44098;SDS011;29762;50.086;14.364;2023-03-13T16:49:48;7.63;;;3.00;;
44098;SDS011;29762;50.086;14.364;2023-03-13T16:55:08;8.82;;;3.63;;
44098;SDS011;29762;50.086;14.364;2023-03-13T17:00:29;7.40;;;3.33;;
44098;SDS011;29762;50.086;14.364;2023-03-13T17:05:49;8.40;;;3.45;;
44098;SDS011;29762;50.086;14.364;2023-03-13T17:11:10;7.85;;;3.42;;
44098;SDS011;29762;50.086;14.364;2023-03-13T17:16:31;8.95;;;3.47;;
44098;SDS011;29762;50.086;14.364;2023-03-13T17:21:52;5.53;;;3.15;;
44098;SDS011;29762;50.086;14.364;2023-03-13T17:27:12;9.15;;;2.83;;
44098;SDS011;29762;50.086;14.364;2023-03-13T17:32:32;8.20;;;3.15;;
44098;SDS011;29762;50.086;14.364;2023-03-13T17:37:52;7.00;;;2.72;;
44098;SDS011;29762;50.086;14.364;2023-03-13T17:43:11;5.38;;;2.72;;
44098;SDS011;29762;50.086;14.364;2023-03-13T17:48:31;6.85;;;2.97;;
44098;SDS011;29762;50.086;14.364;2023-03-13T17:53:51;5.55;;;2.53;;
44098;SDS011;29762;50.086;14.364;2023-03-13T17:59:12;5.95;;;2.45;;
44098;SDS011;29762;50.086;14.364;2023-03-13T18:04:33;6.30;;;2.50;;
44098;SDS011;29762;50.086;14.364;2023-03-13T18:09:53;4.43;;;2.53;;
44098;SDS011;29762;50.086;14.364;2023-03-13T18:15:12;4.00;;;2.50;;
44098;SDS011;29762;50.086;14.364;2023-03-13T18:20:32;5.03;;;2.58;;
44098;SDS011;29762;50.086;14.364;2023-03-13T18:25:52;5.40;;;2.35;;
44098;SDS011;29762;50.086;14.364;2023-03-13T18:31:11;4.63;;;2.58;;
44098;SDS011;29762;50.086;14.364;2023-03-13T18:36:30;6.50;;;2.60;;
44098;SDS011;29762;50.086;14.364;2023-03-13T18:41:50;11.55;;;2.42;;
44098;SDS011;29762;50.086;14.364;2023-03-13T18:47:11;4.00;;;2.22;;
44098;SDS011;29762;50.086;14.364;2023-03-13T18:52:32;4.95;;;2.33;;
44098;SDS011;29762;50.086;14.364;2023-03-13T18:57:51;4.05;;;2.17;;
44098;SDS011;29762;50.086;14.364;2023-03-13T19:03:11;6.95;;;2.20;;
44098;SDS011;29762;50.086;14.364;2023-03-13T19:08:31;3.67;;;2.00;;
44098;SDS011;29762;50.086;14.364;2023-03-13T19:13:50;4.25;;;2.17;;
44098;SDS011;29762;50.086;14.364;2023-03-13T19:24:31;4.65;;;2.28;;
44098;SDS011;29762;50.086;14.364;2023-03-13T19:29:51;5.45;;;2.13;;
44098;SDS011;29762;50.086;14.364;2023-03-13T19:35:10;3.55;;;2.17;;
44098;SDS011;29762;50.086;14.364;2023-03-13T19:40:36;5.82;;;2.10;;
44098;SDS011;29762;50.086;14.364;2023-03-13T19:45:56;4.63;;;2.30;;
44098;SDS011;29762;50.086;14.364;2023-03-13T19:51:15;6.30;;;2.17;;
44098;SDS011;29762;50.086;14.364;2023-03-13T19:56:35;4.40;;;2.20;;
44098;SDS011;29762;50.086;14.364;2023-03-13T20:01:55;4.00;;;2.10;;
44098;SDS011;29762;50.086;14.364;2023-03-13T20:07:15;3.35;;;1.73;;
44098;SDS011;29762;50.086;14.364;2023-03-13T20:12:35;4.75;;;2.30;;
44098;SDS011;29762;50.086;14.364;2023-03-13T20:17:54;4.07;;;2.50;;
44098;SDS011;29762;50.086;14.364;2023-03-13T20:23:14;5.10;;;2.90;;
44098;SDS011;29762;50.086;14.364;2023-03-13T20:28:38;3.97;;;2.60;;
44098;SDS011;29762;50.086;14.364;2023-03-13T20:33:59;4.97;;;2.28;;
44098;SDS011;29762;50.086;14.364;2023-03-13T20:39:19;3.88;;;2.20;;
44098;SDS011;29762;50.086;14.364;2023-03-13T20:44:38;4.80;;;2.70;;
44098;SDS011;29762;50.086;14.364;2023-03-13T20:49:58;4.93;;;2.28;;
44098;SDS011;29762;50.086;14.364;2023-03-13T20:55:18;5.72;;;2.50;;
44098;SDS011;29762;50.086;14.364;2023-03-13T21:00:37;4.00;;;2.40;;
44098;SDS011;29762;50.086;14.364;2023-03-13T21:05:57;4.35;;;2.40;;
44098;SDS011;29762;50.086;14.364;2023-03-13T21:11:17;4.07;;;2.28;;
44098;SDS011;29762;50.086;14.364;2023-03-13T21:16:38;5.53;;;2.45;;
44098;SDS011;29762;50.086;14.364;2023-03-13T21:21:58;3.88;;;2.30;;
44098;SDS011;29762;50.086;14.364;2023-03-13T21:27:17;4.65;;;2.10;;
44098;SDS011;29762;50.086;14.364;2023-03-13T21:32:37;5.75;;;2.17;;
44098;SDS011;29762;50.086;14.364;2023-03-13T21:37:57;4.70;;;2.33;;
44098;SDS011;29762;50.086;14.364;2023-03-13T21:43:16;3.80;;;2.13;;
44098;SDS011;29762;50.086;14.364;2023-03-13T21:48:36;3.90;;;2.13;;
44098;SDS011;29762;50.086;14.364;2023-03-13T21:53:57;5.72;;;2.15;;
44098;SDS011;29762;50.086;14.364;2023-03-13T21:59:16;5.53;;;2.20;;
44098;SDS011;29762;50.086;14.364;2023-03-13T22:04:36;3.67;;;2.20;;
44098;SDS011;29762;50.086;14.364;2023-03-13T22:09:55;3.10;;;2.20;;
44098;SDS011;29762;50.086;14.364;2023-03-13T22:15:16;6.22;;;2.20;;
44098;SDS011;29762;50.086;14.364;2023-03-13T22:20:35;4.07;;;2.13;;
44098;SDS011;29762;50.086;14.364;2023-03-13T22:25:55;4.22;;;1.98;;
44098;SDS011;29762;50.086;14.364;2023-03-13T22:31:15;4.32;;;2.17;;
44098;SDS011;29762;50.086;14.364;2023-03-13T22:36:35;3.60;;;1.83;;
44098;SDS011;29762;50.086;14.364;2023-03-13T22:41:55;2.72;;;1.83;;
44098;SDS011;29762;50.086;14.364;2023-03-13T22:47:15;4.18;;;1.90;;
44098;SDS011;29762;50.086;14.364;2023-03-13T22:52:34;2.97;;;2.08;;
44098;SDS011;29762;50.086;14.364;2023-03-13T22:57:54;3.47;;;2.20;;
44098;SDS011;29762;50.086;14.364;2023-03-13T23:03:13;2.72;;;2.00;;
44098;SDS011;29762;50.086;14.364;2023-03-13T23:08:33;3.90;;;1.92;;
44098;SDS011;29762;50.086;14.364;2023-03-13T23:13:53;4.43;;;2.25;;
44098;SDS011;29762;50.086;14.364;2023-03-13T23:19:13;2.92;;;1.60;;
44098;SDS011;29762;50.086;14.364;2023-03-13T23:24:33;3.08;;;1.70;;
44098;SDS011;29762;50.086;14.364;2023-03-13T23:29:52;2.55;;;1.70;;
44098;SDS011;29762;50.086;14.364;2023-03-13T23:35:12;2.88;;;1.85;;
44098;SDS011;29762;50.086;14.364;2023-03-13T23:40:35;2.85;;;1.80;;
44098;SDS011;29762;50.086;14.364;2023-03-13T23:45:54;3.38;;;2.08;;
44098;SDS011;29762;50.086;14.364;2023-03-13T23:51:13;3.15;;;1.80;;
44098;SDS011;29762;50.086;14.364;2023-03-13T23:56:33;1.85;;;1.55;;
